Time;durP1;ratioP1;P1;durP2;ratioP2;P2;SDS_P1;SDS_P2;PMS_P1;PMS_P2;Temp;Humidity;BMP_temperature;BMP_pressure;BME280_temperature;BME280_humidity;BME280_pressure;Samples;Min_cycle;Max_cycle;Signal;HPM_P1;HPM_P2
2022/10/10 00:01:40;;;;;;;7.32;6.78;;;15.50;54.20;;;;;;20479;6854;338721;-86
2022/10/10 00:04:06;;;;;;;7.43;6.87;;;15.70;54.40;;;;;;20692;6854;117367;-86
2022/10/10 00:06:32;;;;;;;8.13;7.43;;;15.70;54.20;;;;;;20465;6854;327153;-86
2022/10/10 00:08:58;;;;;;;7.50;6.90;;;15.80;54.00;;;;;;20696;6854;118038;-86
2022/10/10 00:11:23;;;;;;;6.47;6.07;;;15.80;54.00;;;;;;20692;6854;117395;-85
2022/10/10 00:13:49;;;;;;;7.10;6.40;;;15.60;54.10;;;;;;20691;6854;117810;-86
2022/10/10 00:16:15;;;;;;;7.05;6.65;;;15.50;54.40;;;;;;20477;6854;308727;-86
2022/10/10 00:18:40;;;;;;;7.72;7.12;;;15.60;54.80;;;;;;20465;6854;279120;-86
2022/10/10 00:21:07;;;;;;;7.90;7.30;;;16.00;54.30;;;;;;20480;6854;279687;-86
2022/10/10 00:23:33;;;;;;;7.87;7.30;;;16.30;53.60;;;;;;20483;6854;291170;-86
2022/10/10 00:25:58;;;;;;;7.87;7.43;;;16.50;53.10;;;;;;20484;6854;278718;-86
2022/10/10 00:28:25;;;;;;;8.60;7.90;;;16.60;52.70;;;;;;20462;6854;338409;-87
2022/10/10 00:30:51;;;;;;;7.70;7.20;;;16.70;52.50;;;;;;20471;6854;309587;-86
2022/10/10 00:33:16;;;;;;;8.17;7.67;;;16.80;52.50;;;;;;20490;6851;304367;-86
2022/10/10 00:35:43;;;;;;;6.70;6.20;;;16.80;52.20;;;;;;20700;6853;117491;-89
2022/10/10 00:38:09;;;;;;;7.80;7.30;;;16.60;52.40;;;;;;20488;6853;345899;-87
2022/10/10 00:40:34;;;;;;;7.80;7.07;;;16.50;52.80;;;;;;20650;6853;127172;-86
2022/10/10 00:43:00;;;;;;;7.40;6.90;;;16.00;54.00;;;;;;20690;6853;117960;-86
2022/10/10 00:45:37;;;;;;;7.68;7.10;;;16.00;53.30;;;;;;20475;6853;338291;-86
2022/10/10 00:48:02;;;;;;;8.55;7.95;;;16.00;53.80;;;;;;20476;6853;309298;-86
2022/10/10 00:50:27;;;;;;;7.62;7.12;;;16.40;53.60;;;;;;20075;6853;327226;-86
2022/10/10 00:52:53;;;;;;;7.97;7.27;;;16.60;53.10;;;;;;20685;6853;118098;-87
2022/10/10 00:55:18;;;;;;;8.07;7.47;;;16.40;53.00;;;;;;20480;6853;309568;-84
2022/10/10 00:57:44;;;;;;;6.85;6.35;;;16.40;53.30;;;;;;20693;6853;118273;-84
2022/10/10 01:00:10;;;;;;;8.13;7.50;;;16.20;53.30;;;;;;20480;6853;342606;-83
2022/10/10 01:02:35;;;;;;;7.37;6.87;;;16.30;53.50;;;;;;20463;6853;309300;-84
2022/10/10 01:05:01;;;;;;;7.63;7.13;;;16.50;53.20;;;;;;20690;6853;117041;-85
2022/10/10 01:07:26;;;;;;;13.62;12.52;;;16.40;52.90;;;;;;20695;6853;117421;-84
2022/10/10 01:09:52;;;;;;;25.23;22.70;;;16.10;53.40;;;;;;20684;6854;118221;-84
2022/10/10 01:12:41;;;;;;;17.13;15.43;;;15.80;53.80;;;;;;20664;6854;120303;-85
2022/10/10 01:15:17;;;;;;;11.43;10.47;;;15.60;54.10;;;;;;20468;6854;280129;-85
2022/10/10 01:17:53;;;;;;;7.77;7.10;;;15.80;54.70;;;;;;20692;6854;117785;-84
2022/10/10 01:20:38;;;;;;;7.57;7.07;;;15.80;54.40;;;;;;20673;6854;117472;-85
2022/10/10 01:23:13;;;;;;;7.30;6.80;;;15.60;54.60;;;;;;19914;6854;117982;-84
2022/10/10 01:26:08;;;;;;;6.93;6.53;;;15.40;54.80;;;;;;20456;6854;281362;-84
2022/10/10 01:28:38;;;;;;;7.40;6.80;;;16.10;54.60;;;;;;20464;6854;278711;-85
2022/10/10 01:31:03;;;;;;;7.23;6.53;;;16.10;54.60;;;;;;20650;6854;117289;-84
2022/10/10 01:33:32;;;;;;;7.12;6.62;;;16.10;54.30;;;;;;20683;6854;117433;-84
2022/10/10 01:36:20;;;;;;;7.37;6.97;;;15.80;54.40;;;;;;20447;6854;308692;-84
2022/10/10 01:38:56;;;;;;;8.00;7.40;;;16.00;54.70;;;;;;19851;6862;278640;-84
2022/10/10 01:41:25;;;;;;;6.83;6.33;;;16.30;54.30;;;;;;20620;6877;120544;-84
2022/10/10 01:43:53;;;;;;;7.30;6.70;;;16.10;54.10;;;;;;20449;6860;280026;-85
2022/10/10 01:46:19;;;;;;;6.57;6.00;;;16.20;54.10;;;;;;20457;6861;317581;-84
2022/10/10 01:48:44;;;;;;;6.30;5.80;;;16.40;53.80;;;;;;20659;6861;123620;-84
2022/10/10 01:51:20;;;;;;;6.60;5.20;;;16.30;53.80;;;;;;20631;6874;117362;-85
2022/10/10 01:53:45;;;;;;;7.07;6.50;;;16.00;54.10;;;;;;20395;6874;338396;-85
2022/10/10 01:56:11;;;;;;;13.97;12.87;;;16.00;54.30;;;;;;20604;6874;117966;-84
2022/10/10 01:58:43;;;;;;;12.20;11.10;;;16.00;54.30;;;;;;20562;6874;122770;-85
2022/10/10 02:01:12;;;;;;;6.83;6.40;;;15.80;54.60;;;;;;20623;6876;124827;-84
2022/10/10 02:03:38;;;;;;;6.77;6.30;;;15.60;54.80;;;;;;20640;6862;117735;-84
2022/10/10 02:06:23;;;;;;;6.53;6.12;;;15.40;55.10;;;;;;20415;6862;286423;-85
2022/10/10 02:08:59;;;;;;;6.90;6.40;;;15.60;55.40;;;;;;20411;6876;280550;-84
2022/10/10 02:11:26;;;;;;;6.93;5.97;;;16.00;54.70;;;;;;20658;6862;117361;-84
2022/10/10 02:13:51;;;;;;;6.47;5.87;;;16.00;54.50;;;;;;20662;6862;117516;-84
2022/10/10 02:16:20;;;;;;;7.00;6.50;;;15.70;54.60;;;;;;20448;6862;279635;-84
2022/10/10 02:18:46;;;;;;;6.30;5.83;;;15.90;54.90;;;;;;20598;6876;117769;-85
2022/10/10 02:21:12;;;;;;;7.32;6.80;;;15.80;54.70;;;;;;20411;6875;315384;-83
2022/10/10 02:23:37;;;;;;;6.83;6.33;;;16.00;54.80;;;;;;20403;6877;310484;-85
2022/10/10 02:26:03;;;;;;;6.90;6.40;;;16.50;53.60;;;;;;20412;6875;310349;-84
2022/10/10 02:28:40;;;;;;;6.70;6.20;;;16.40;53.50;;;;;;20613;6877;118660;-84
2022/10/10 02:31:09;;;;;;;5.77;5.27;;;16.30;53.40;;;;;;20665;6862;117674;-86
2022/10/10 02:33:34;;;;;;;7.60;7.00;;;16.00;53.80;;;;;;20373;6877;280269;-86
2022/10/10 02:36:00;;;;;;;6.25;5.85;;;16.10;54.20;;;;;;20621;6862;118548;-86
2022/10/10 02:38:27;;;;;;;7.12;6.62;;;16.00;54.10;;;;;;20425;6863;312549;-86
2022/10/10 02:40:52;;;;;;;6.63;6.13;;;16.10;54.10;;;;;;20624;6877;118232;-86
2022/10/10 02:43:18;;;;;;;7.80;7.23;;;16.10;54.10;;;;;;20405;6877;309722;-86
2022/10/10 02:45:44;;;;;;;8.00;7.30;;;16.20;54.10;;;;;;20453;6859;282137;-86
2022/10/10 02:48:10;;;;;;;6.93;6.53;;;16.30;53.60;;;;;;20673;6859;117798;-86
2022/10/10 02:50:35;;;;;;;7.27;6.77;;;16.30;53.60;;;;;;20429;6859;313573;-86
2022/10/10 02:53:01;;;;;;;7.23;6.80;;;16.40;53.70;;;;;;20458;6862;282320;-85
2022/10/10 02:55:27;;;;;;;6.87;6.37;;;16.50;53.40;;;;;;20425;6861;303375;-86
2022/10/10 02:57:52;;;;;;;8.00;7.30;;;16.70;53.20;;;;;;20459;6861;295671;-86
2022/10/10 03:00:18;;;;;;;6.90;6.40;;;16.80;52.70;;;;;;20663;6861;117419;-86
2022/10/10 03:02:44;;;;;;;7.10;6.50;;;16.60;52.90;;;;;;20651;6861;117744;-86
2022/10/10 03:05:09;;;;;;;6.85;6.25;;;16.30;53.40;;;;;;20447;6861;280594;-86
2022/10/10 03:07:34;;;;;;;7.47;6.87;;;16.30;53.70;;;;;;20461;6862;282804;-86
2022/10/10 03:10:01;;;;;;;6.93;6.30;;;16.70;52.80;;;;;;20465;6862;313387;-86
2022/10/10 03:12:26;;;;;;;6.83;5.37;;;16.70;53.30;;;;;;20653;6862;117955;-85
2022/10/10 03:14:52;;;;;;;6.17;5.63;;;16.50;53.30;;;;;;20667;6862;118801;-85
2022/10/10 03:17:17;;;;;;;6.03;5.63;;;16.20;53.80;;;;;;20465;6862;281498;-87
2022/10/10 03:19:43;;;;;;;6.90;6.20;;;16.20;54.10;;;;;;20458;6862;283625;-85
2022/10/10 03:22:09;;;;;;;6.60;6.00;;;16.50;53.80;;;;;;20673;6862;118207;-85
2022/10/10 03:24:36;;;;;;;5.50;5.00;;;16.30;53.60;;;;;;20433;6862;309342;-85
2022/10/10 03:27:01;;;;;;;7.07;4.30;;;16.30;54.10;;;;;;20669;6862;118615;-85
2022/10/10 03:29:27;;;;;;;5.30;4.80;;;16.20;54.10;;;;;;20453;6862;327243;-85
2022/10/10 03:31:53;;;;;;;5.65;5.25;;;16.20;54.30;;;;;;20670;6862;117824;-85
2022/10/10 03:34:19;;;;;;;6.13;5.63;;;16.20;54.30;;;;;;20667;6862;117547;-84
2022/10/10 03:36:44;;;;;;;6.85;6.15;;;15.90;54.50;;;;;;20441;6862;287925;-85
2022/10/10 03:39:11;;;;;;;6.43;5.93;;;16.00;54.90;;;;;;20671;6862;118640;-85
2022/10/10 03:41:36;;;;;;;6.60;6.10;;;15.90;54.60;;;;;;20668;6862;116703;-85
2022/10/10 03:44:02;;;;;;;7.43;6.45;;;15.70;54.80;;;;;;20670;6862;117683;-85
2022/10/10 03:46:27;;;;;;;6.65;6.15;;;15.50;55.10;;;;;;20653;6862;127150;-86
2022/10/10 03:48:54;;;;;;;8.02;6.80;;;15.40;55.40;;;;;;20465;6862;280247;-85
2022/10/10 03:51:20;;;;;;;6.97;6.47;;;15.60;55.60;;;;;;20452;6862;310119;-85
2022/10/10 03:53:45;;;;;;;6.23;5.70;;;15.90;55.00;;;;;;20676;6862;118883;-86
2022/10/10 03:56:11;;;;;;;7.00;6.50;;;15.90;54.70;;;;;;20464;6862;306926;-87
2022/10/10 03:58:36;;;;;;;6.97;6.37;;;16.00;54.70;;;;;;20454;6862;279676;-85
2022/10/10 04:01:02;;;;;;;6.97;6.37;;;16.20;54.30;;;;;;20684;6862;119176;-86
2022/10/10 04:03:28;;;;;;;7.12;6.72;;;16.00;54.30;;;;;;20471;6862;279879;-85
2022/10/10 04:05:54;;;;;;;6.20;5.73;;;16.00;54.30;;;;;;20676;6860;120036;-85
2022/10/10 04:08:21;;;;;;;6.77;6.33;;;15.90;54.30;;;;;;20463;6861;313993;-85
2022/10/10 04:10:46;;;;;;;6.57;5.80;;;15.90;54.70;;;;;;20662;6861;120428;-85
2022/10/10 04:13:12;;;;;;;6.82;6.22;;;15.80;54.60;;;;;;20451;6861;279452;-85
2022/10/10 04:15:38;;;;;;;6.30;5.90;;;15.90;54.90;;;;;;20466;6861;314318;-85
2022/10/10 04:18:03;;;;;;;5.53;5.13;;;16.10;54.50;;;;;;20679;6862;117538;-85
2022/10/10 04:20:30;;;;;;;6.25;5.75;;;15.90;54.40;;;;;;20444;6862;313959;-85
2022/10/10 04:22:56;;;;;;;6.83;5.30;;;15.90;54.80;;;;;;20678;6862;118077;-85
2022/10/10 04:25:21;;;;;;;6.12;5.55;;;15.80;54.80;;;;;;20677;6862;117912;-85
2022/10/10 04:27:47;;;;;;;6.05;5.45;;;15.20;56.00;;;;;;20681;6862;120623;-86
2022/10/10 04:30:14;;;;;;;5.50;5.17;;;15.20;55.30;;;;;;20700;6862;68470;-86
2022/10/10 04:32:41;;;;;;;5.87;5.30;;;15.00;55.60;;;;;;20671;6862;127139;-86
2022/10/10 04:35:08;;;;;;;5.73;5.23;;;14.90;55.90;;;;;;20689;6862;118203;-88
2022/10/10 04:37:33;;;;;;;6.17;5.67;;;14.70;56.10;;;;;;20672;6862;116405;-84
2022/10/10 04:39:59;;;;;;;6.70;6.15;;;14.60;56.30;;;;;;20468;6862;279719;-85
2022/10/10 04:42:24;;;;;;;6.73;6.13;;;14.80;56.30;;;;;;20449;6862;285293;-85
2022/10/10 04:44:54;;;;;;;5.93;5.50;;;15.20;56.60;;;;;;20540;6862;118805;-84
2022/10/10 04:47:20;;;;;;;5.50;5.10;;;15.10;56.10;;;;;;20705;6849;118110;-84
2022/10/10 04:49:45;;;;;;;6.13;5.50;;;14.90;56.30;;;;;;20722;6847;123706;-87
2022/10/10 04:52:11;;;;;;;6.67;6.00;;;14.60;56.50;;;;;;20471;6860;309573;-84
2022/10/10 04:54:38;;;;;;;5.67;5.37;;;14.80;57.20;;;;;;20659;6862;125026;-87
2022/10/10 04:57:04;;;;;;;6.12;5.62;;;14.80;56.90;;;;;;20511;6847;279207;-86
2022/10/10 04:59:29;;;;;;;6.40;5.90;;;14.90;57.10;;;;;;20589;6847;337629;-84
2022/10/10 05:01:55;;;;;;;5.97;5.47;;;15.20;56.70;;;;;;20795;6847;117525;-85
2022/10/10 05:04:20;;;;;;;6.20;5.17;;;15.20;56.00;;;;;;20743;6847;117981;-86
2022/10/10 05:06:46;;;;;;;6.80;6.20;;;14.90;56.60;;;;;;20482;6847;309088;-86
2022/10/10 05:09:13;;;;;;;5.70;5.30;;;15.00;57.00;;;;;;20719;6847;117452;-85
2022/10/10 05:11:38;;;;;;;6.80;6.35;;;14.90;56.80;;;;;;20507;6847;308938;-91
2022/10/10 05:14:04;;;;;;;5.83;5.37;;;15.10;57.10;;;;;;20720;6847;117349;-85
2022/10/10 05:16:31;;;;;;;6.57;5.53;;;15.00;56.90;;;;;;20684;6847;117965;-85
2022/10/10 05:19:00;;;;;;;6.53;5.97;;;14.80;57.20;;;;;;20412;6845;317635;-85
2022/10/10 05:21:24;;;;;;;6.10;5.50;;;15.00;57.40;;;;;;20766;6846;68037;-86
2022/10/10 05:23:49;;;;;;;7.17;6.60;;;15.00;57.10;;;;;;20518;6846;279398;-90
2022/10/10 05:26:18;;;;;;;7.15;6.65;;;15.10;57.20;;;;;;20517;6847;308319;-84
2022/10/10 05:28:41;;;;;;;6.80;6.30;;;15.40;56.70;;;;;;20693;6847;120086;-86
2022/10/10 05:31:07;;;;;;;7.28;6.68;;;15.40;56.40;;;;;;20481;6847;312945;-85
2022/10/10 05:33:33;;;;;;;6.57;5.65;;;15.40;56.40;;;;;;20714;6847;117398;-86
2022/10/10 05:36:05;;;;;;;7.80;7.10;;;15.30;56.30;;;;;;20504;6847;312852;-85
2022/10/10 05:38:31;;;;;;;7.33;6.93;;;15.40;56.40;;;;;;20433;6847;309612;-86
2022/10/10 05:40:57;;;;;;;7.33;6.67;;;15.70;56.00;;;;;;20711;6847;117552;-87
2022/10/10 05:43:22;;;;;;;6.80;6.10;;;15.60;55.90;;;;;;20720;6847;117592;-87
2022/10/10 05:45:48;;;;;;;7.33;6.73;;;15.30;56.30;;;;;;20505;6847;316753;-87
2022/10/10 05:48:14;;;;;;;8.00;6.65;;;15.70;56.40;;;;;;20517;6847;338353;-87
2022/10/10 05:50:40;;;;;;;7.97;6.40;;;15.60;56.20;;;;;;20703;6847;143924;-86
2022/10/10 05:53:07;;;;;;;6.27;5.87;;;15.60;56.00;;;;;;20705;6847;117598;-86
2022/10/10 05:55:32;;;;;;;5.37;5.07;;;15.30;56.40;;;;;;20716;6847;119533;-86
2022/10/10 05:57:58;;;;;;;7.30;6.25;;;15.10;56.70;;;;;;20711;6847;116450;-87
2022/10/10 06:00:23;;;;;;;5.93;5.53;;;15.00;57.10;;;;;;20701;6847;121094;-86
2022/10/10 06:02:49;;;;;;;7.13;6.53;;;14.80;57.20;;;;;;20480;6847;312816;-88
2022/10/10 06:05:14;;;;;;;6.47;5.97;;;15.00;57.60;;;;;;20715;6847;123722;-87
2022/10/10 06:07:41;;;;;;;6.10;5.70;;;15.10;57.30;;;;;;20716;6847;117452;-87
2022/10/10 06:10:09;;;;;;;6.07;5.57;;;14.90;57.30;;;;;;20695;6847;118178;-86
2022/10/10 06:12:36;;;;;;;5.40;5.00;;;14.80;57.60;;;;;;20693;6847;123225;-84
2022/10/10 06:15:03;;;;;;;6.70;6.10;;;14.70;57.80;;;;;;20469;6847;294028;-84
2022/10/10 06:17:30;;;;;;;6.63;6.13;;;14.90;58.10;;;;;;20500;6847;308213;-84
2022/10/10 06:19:56;;;;;;;7.53;6.35;;;15.70;57.30;;;;;;20484;6847;313189;-85
2022/10/10 06:22:22;;;;;;;6.07;5.60;;;15.70;56.70;;;;;;20715;6847;117374;-85
2022/10/10 06:24:47;;;;;;;6.57;6.07;;;15.60;56.40;;;;;;20486;6847;342184;-86
2022/10/10 06:27:13;;;;;;;6.10;5.60;;;15.70;56.50;;;;;;20705;6847;117500;-85
2022/10/10 06:29:38;;;;;;;6.17;5.57;;;15.60;56.50;;;;;;20722;6845;117791;-86
2022/10/10 06:32:04;;;;;;;6.40;5.65;;;15.40;56.80;;;;;;20726;6846;117391;-86
2022/10/10 06:34:30;;;;;;;9.43;8.63;;;15.20;57.10;;;;;;20492;6846;308380;-86
2022/10/10 06:36:55;;;;;;;16.50;15.17;;;15.40;57.20;;;;;;20717;6847;116507;-85
2022/10/10 06:39:21;;;;;;;12.20;11.25;;;15.50;57.00;;;;;;20732;6847;117806;-85
2022/10/10 06:41:50;;;;;;;17.73;16.23;;;15.30;57.20;;;;;;20516;6847;284220;-87
2022/10/10 06:44:15;;;;;;;9.13;8.43;;;15.50;57.10;;;;;;20721;6847;116773;-85
2022/10/10 06:46:41;;;;;;;7.70;7.20;;;15.50;57.20;;;;;;20678;6847;117757;-85
2022/10/10 06:49:07;;;;;;;50.17;39.13;;;15.50;57.10;;;;;;20513;6847;313967;-84
2022/10/10 06:51:33;;;;;;;16.45;14.40;;;16.10;56.30;;;;;;20484;6847;332828;-84
2022/10/10 06:53:59;;;;;;;70.03;44.40;;;16.00;56.20;;;;;;20712;6847;118660;-84
2022/10/10 06:56:25;;;;;;;27.97;21.43;;;16.00;55.90;;;;;;20505;6847;280204;-85
2022/10/10 06:58:50;;;;;;;42.77;38.33;;;16.20;55.90;;;;;;20361;6847;312717;-84
2022/10/10 07:01:18;;;;;;;12.23;11.43;;;16.30;55.40;;;;;;20717;6847;118146;-84
2022/10/10 07:03:43;;;;;;;11.27;10.47;;;16.30;56.00;;;;;;20720;6847;118280;-84
2022/10/10 07:06:09;;;;;;;9.37;8.67;;;16.10;55.70;;;;;;20713;6847;122060;-85
2022/10/10 07:08:34;;;;;;;6.87;6.33;;;15.90;56.10;;;;;;20691;6847;117870;-85
2022/10/10 07:11:00;;;;;;;7.65;6.93;;;15.80;56.50;;;;;;20502;6847;278697;-84
2022/10/10 07:13:25;;;;;;;9.97;9.27;;;15.90;56.70;;;;;;20717;6847;123656;-85
2022/10/10 07:15:52;;;;;;;15.37;13.83;;;16.00;56.50;;;;;;20506;6847;279611;-85
2022/10/10 07:18:17;;;;;;;9.10;8.40;;;16.30;56.50;;;;;;20507;6847;323181;-85
2022/10/10 07:20:43;;;;;;;6.00;5.70;;;16.60;55.90;;;;;;20700;6847;117859;-85
2022/10/10 07:23:09;;;;;;;8.55;7.85;;;16.60;55.90;;;;;;20517;6847;279065;-84
2022/10/10 07:25:34;;;;;;;6.90;6.40;;;16.70;56.30;;;;;;20720;6847;117841;-85
2022/10/10 07:28:00;;;;;;;10.83;10.07;;;16.70;55.60;;;;;;20496;6847;279142;-85
2022/10/10 07:30:25;;;;;;;8.00;7.40;;;16.80;55.20;;;;;;20485;6847;308676;-86
2022/10/10 07:32:54;;;;;;;8.37;7.57;;;17.00;54.80;;;;;;20713;6847;116692;-85
2022/10/10 07:35:20;;;;;;;6.60;6.20;;;16.70;55.70;;;;;;20715;6847;117202;-85
2022/10/10 07:37:46;;;;;;;6.33;5.73;;;16.80;55.30;;;;;;20504;6847;292104;-87
2022/10/10 07:40:11;;;;;;;5.55;5.25;;;16.90;55.30;;;;;;20715;6847;117438;-85
2022/10/10 07:42:37;;;;;;;6.33;5.83;;;16.90;55.10;;;;;;20696;6845;127407;-86
2022/10/10 07:45:03;;;;;;;6.53;6.03;;;16.70;55.20;;;;;;20496;6846;309015;-87
2022/10/10 07:47:28;;;;;;;7.23;6.70;;;16.90;55.00;;;;;;20714;6847;118403;-87
2022/10/10 07:49:54;;;;;;;8.15;6.45;;;16.90;54.90;;;;;;20514;6847;309160;-86
2022/10/10 07:52:19;;;;;;;6.60;6.20;;;17.00;55.20;;;;;;20523;6847;280342;-85
2022/10/10 07:54:45;;;;;;;6.80;6.20;;;17.30;54.70;;;;;;20485;6847;308355;-87
2022/10/10 07:57:10;;;;;;;6.10;5.70;;;17.60;54.40;;;;;;20505;6847;279924;-85
2022/10/10 07:59:36;;;;;;;6.13;5.63;;;17.80;54.20;;;;;;20515;6847;287911;-85
2022/10/10 08:02:02;;;;;;;6.17;5.60;;;17.90;53.80;;;;;;20515;6847;279049;-85
2022/10/10 08:04:27;;;;;;;6.00;5.57;;;18.00;53.60;;;;;;20497;6847;292603;-85
2022/10/10 08:06:53;;;;;;;5.50;5.00;;;18.10;54.40;;;;;;20721;6847;118175;-85
2022/10/10 08:09:18;;;;;;;9.70;8.43;;;17.80;53.80;;;;;;20509;6847;279392;-84
2022/10/10 08:11:44;;;;;;;6.47;5.95;;;17.80;54.30;;;;;;20719;6847;117516;-85
2022/10/10 08:14:09;;;;;;;8.13;7.20;;;17.60;54.40;;;;;;20715;6847;118517;-84
2022/10/10 08:16:36;;;;;;;8.60;7.90;;;17.40;54.80;;;;;;20481;6847;300000;-84
2022/10/10 08:19:01;;;;;;;8.17;7.67;;;17.40;54.80;;;;;;20717;6847;117799;-86
2022/10/10 08:21:27;;;;;;;8.17;7.50;;;17.40;54.80;;;;;;20503;6847;308155;-85
2022/10/10 08:23:53;;;;;;;5.90;5.25;;;17.50;54.50;;;;;;20718;6847;121887;-85
2022/10/10 08:26:19;;;;;;;5.80;5.50;;;17.50;54.50;;;;;;20711;6847;117323;-85
2022/10/10 08:28:44;;;;;;;7.47;6.87;;;17.30;54.60;;;;;;20486;6847;313365;-85
2022/10/10 08:31:13;;;;;;;8.53;7.73;;;17.40;54.40;;;;;;20720;6847;119801;-86
2022/10/10 08:33:39;;;;;;;9.55;8.85;;;17.40;54.40;;;;;;20501;6847;307934;-86
2022/10/10 08:36:08;;;;;;;7.43;6.73;;;17.50;54.30;;;;;;20727;6847;123691;-86
2022/10/10 08:38:33;;;;;;;10.63;9.82;;;17.50;54.30;;;;;;20487;6847;279508;-85
2022/10/10 08:40:59;;;;;;;8.45;7.60;;;17.60;54.50;;;;;;20489;6847;342480;-86
2022/10/10 08:43:28;;;;;;;7.10;6.40;;;17.80;54.00;;;;;;20712;6847;117853;-86
2022/10/10 08:45:53;;;;;;;8.80;7.97;;;17.70;53.90;;;;;;20491;6847;302820;-87
2022/10/10 08:48:19;;;;;;;6.33;5.83;;;17.80;54.10;;;;;;20501;6847;308174;-86
2022/10/10 08:50:48;;;;;;;6.13;5.63;;;18.00;53.80;;;;;;20679;6847;118498;-85
2022/10/10 08:53:20;;;;;;;6.20;5.70;;;17.90;53.70;;;;;;20708;6845;118027;-85
2022/10/10 08:55:45;;;;;;;6.78;6.37;;;17.70;54.20;;;;;;20499;6846;308659;-85
2022/10/10 08:58:24;;;;;;;5.57;5.18;;;17.70;54.30;;;;;;20721;6846;117421;-85
2022/10/10 09:00:50;;;;;;;7.03;5.10;;;17.50;55.00;;;;;;20697;6847;118435;-85
2022/10/10 09:03:22;;;;;;;8.47;5.47;;;17.50;54.70;;;;;;20692;6847;117325;-85
2022/10/10 09:05:48;;;;;;;6.33;5.73;;;17.40;55.10;;;;;;20705;6847;117383;-85
2022/10/10 09:08:30;;;;;;;6.87;5.90;;;17.40;55.40;;;;;;20485;6847;302148;-85
2022/10/10 09:10:57;;;;;;;6.13;5.63;;;17.70;55.90;;;;;;20714;6847;120341;-85
2022/10/10 09:13:34;;;;;;;7.40;6.80;;;17.70;55.30;;;;;;20478;6847;282605;-85
2022/10/10 09:16:08;;;;;;;11.57;10.47;;;18.00;54.90;;;;;;20510;6847;338505;-83
2022/10/10 09:18:58;;;;;;;6.23;5.73;;;18.40;54.70;;;;;;20664;6847;129604;-84
2022/10/10 09:21:29;;;;;;;7.82;7.03;;;18.40;54.30;;;;;;20500;6847;308847;-84
2022/10/10 09:23:58;;;;;;;6.83;6.33;;;18.60;53.90;;;;;;20681;6847;118142;-84
2022/10/10 09:26:23;;;;;;;6.43;6.13;;;18.60;53.90;;;;;;20465;6847;309096;-84
2022/10/10 09:28:49;;;;;;;8.07;7.13;;;18.70;54.00;;;;;;20689;6847;122004;-83
2022/10/10 09:31:18;;;;;;;5.70;5.20;;;18.70;53.90;;;;;;20699;6847;117430;-84
2022/10/10 09:33:44;;;;;;;5.90;5.50;;;18.50;54.00;;;;;;20698;6847;117879;-84
2022/10/10 09:36:09;;;;;;;6.30;5.80;;;18.40;54.20;;;;;;20481;6847;335958;-84
2022/10/10 09:38:35;;;;;;;11.97;10.83;;;18.50;54.00;;;;;;20481;6847;279609;-84
2022/10/10 09:41:07;;;;;;;10.97;9.63;;;18.80;53.40;;;;;;19692;6847;308703;-84
2022/10/10 09:43:33;;;;;;;7.23;6.63;;;19.00;52.90;;;;;;20663;6847;117581;-85
2022/10/10 09:45:59;;;;;;;9.60;8.60;;;19.00;52.80;;;;;;20496;6847;304872;-85
2022/10/10 09:48:27;;;;;;;6.20;5.70;;;19.10;53.10;;;;;;20505;6847;338747;-85
2022/10/10 09:50:54;;;;;;;5.10;4.70;;;19.30;53.10;;;;;;20700;6847;117598;-85
2022/10/10 09:53:19;;;;;;;4.87;4.47;;;19.20;53.00;;;;;;20709;6847;117804;-86
2022/10/10 09:55:45;;;;;;;4.95;4.50;;;19.10;53.40;;;;;;20485;6847;288535;-85
2022/10/10 09:58:16;;;;;;;4.53;4.07;;;19.20;52.90;;;;;;20699;6847;117927;-86
2022/10/10 10:00:42;;;;;;;4.90;4.47;;;19.20;52.90;;;;;;20478;6847;278663;-84
2022/10/10 10:03:11;;;;;;;5.03;4.55;;;19.40;53.10;;;;;;20501;6847;312786;-85
2022/10/10 10:05:36;;;;;;;4.40;4.10;;;19.80;53.00;;;;;;20692;6845;120233;-87
2022/10/10 10:08:02;;;;;;;5.80;4.50;;;19.80;52.70;;;;;;20498;6846;308643;-87
2022/10/10 10:10:29;;;;;;;5.18;4.78;;;20.00;51.70;;;;;;20484;6846;342287;-86
2022/10/10 10:12:53;;;;;;;4.53;4.13;;;20.20;51.60;;;;;;20715;6847;118122;-87
2022/10/10 10:15:21;;;;;;;5.18;4.60;;;20.20;51.50;;;;;;20518;6847;283515;-86
2022/10/10 10:18:16;;;;;;;5.40;4.20;;;20.30;52.20;;;;;;20500;6847;311065;-86
2022/10/10 10:20:52;;;;;;;6.40;4.40;;;20.60;50.70;;;;;;20477;6847;309938;-86
2022/10/10 10:23:26;;;;;;;5.27;4.37;;;21.00;51.40;;;;;;20444;6847;279855;-86
2022/10/10 10:25:58;;;;;;;5.20;4.33;;;21.30;50.80;;;;;;20515;6847;312282;-85
2022/10/10 10:28:24;;;;;;;4.80;4.10;;;21.50;50.10;;;;;;20708;6847;118077;-85
2022/10/10 10:30:49;;;;;;;4.30;3.90;;;21.50;50.10;;;;;;20497;6847;287856;-84
2022/10/10 10:33:24;;;;;;;4.70;4.30;;;21.50;50.30;;;;;;20716;6847;117712;-85
2022/10/10 10:36:13;;;;;;;5.00;3.70;;;21.50;50.50;;;;;;20710;6847;117391;-85
2022/10/10 10:38:42;;;;;;;4.60;4.20;;;21.30;50.60;;;;;;20695;6847;124283;-85
2022/10/10 10:41:24;;;;;;;5.93;4.53;;;21.10;51.00;;;;;;20494;6847;338619;-86
2022/10/10 10:44:02;;;;;;;6.03;4.80;;;21.30;51.10;;;;;;20457;6847;308267;-84
2022/10/10 10:46:48;;;;;;;5.80;3.97;;;21.70;51.20;;;;;;20696;6847;117914;-84
2022/10/10 10:49:14;;;;;;;4.30;3.90;;;21.70;50.80;;;;;;20485;6847;279884;-84
2022/10/10 10:51:39;;;;;;;4.17;3.87;;;21.80;51.10;;;;;;20711;6847;121518;-84
2022/10/10 10:54:08;;;;;;;4.53;4.13;;;21.70;50.40;;;;;;20690;6847;117870;-84
2022/10/10 10:56:41;;;;;;;4.43;4.03;;;21.60;50.90;;;;;;20461;6847;309461;-84
2022/10/10 10:59:09;;;;;;;4.28;3.80;;;22.10;50.20;;;;;;20440;6847;307787;-85
2022/10/10 11:01:59;;;;;;;4.40;4.00;;;22.10;50.40;;;;;;20704;6847;117964;-84
2022/10/10 11:04:38;;;;;;;3.70;3.40;;;22.10;50.40;;;;;;20643;6847;117785;-85
2022/10/10 11:07:16;;;;;;;4.63;3.67;;;22.10;50.80;;;;;;20719;6847;119046;-85
2022/10/10 11:09:55;;;;;;;5.33;3.40;;;22.10;51.30;;;;;;20704;6847;118004;-84
2022/10/10 11:12:34;;;;;;;3.93;3.60;;;22.10;51.30;;;;;;20697;6847;117867;-86
2022/10/10 11:15:16;;;;;;;3.37;3.13;;;22.20;51.40;;;;;;20727;6847;117597;-86
2022/10/10 11:18:05;;;;;;;4.37;3.73;;;22.30;50.90;;;;;;20740;6846;69533;-86
2022/10/10 11:20:30;;;;;;;5.73;3.67;;;22.30;51.00;;;;;;20694;6846;117217;-87
2022/10/10 11:23:22;;;;;;;5.53;3.50;;;22.40;51.00;;;;;;20707;6847;117548;-87
2022/10/10 11:25:51;;;;;;;4.27;3.60;;;22.40;50.90;;;;;;20493;6847;309562;-87
2022/10/10 11:28:40;;;;;;;4.30;3.90;;;23.10;48.50;;;;;;20489;6847;282382;-85
2022/10/10 11:31:07;;;;;;;8.23;3.20;;;23.10;48.50;;;;;;20655;6847;118250;-86
2022/10/10 11:33:31;;;;;;;3.63;3.10;;;23.20;49.10;;;;;;20690;6847;123257;-87
2022/10/10 11:35:57;;;;;;;5.23;3.20;;;23.10;49.30;;;;;;20491;6847;280665;-87
2022/10/10 11:38:23;;;;;;;4.43;2.90;;;23.20;49.10;;;;;;20486;6847;310456;-86
2022/10/10 11:41:02;;;;;;;4.93;3.10;;;23.80;47.20;;;;;;20486;6847;280757;-86
2022/10/10 11:43:41;;;;;;;3.67;2.70;;;23.80;47.20;;;;;;20700;6847;117860;-87
2022/10/10 11:46:26;;;;;;;6.43;2.90;;;23.80;47.00;;;;;;20696;6847;120365;-86
2022/10/10 11:49:12;;;;;;;8.70;3.30;;;23.60;47.20;;;;;;20699;6847;117837;-87
2022/10/10 11:51:54;;;;;;;7.20;3.30;;;23.40;47.30;;;;;;20500;6847;312327;-86
2022/10/10 11:54:20;;;;;;;3.77;2.63;;;23.60;46.20;;;;;;20714;6847;117953;-87
2022/10/10 11:56:45;;;;;;;3.90;2.80;;;23.60;46.10;;;;;;20651;6847;122233;-87
2022/10/10 11:59:14;;;;;;;5.97;2.87;;;23.50;46.60;;;;;;20501;6847;308478;-86
2022/10/10 12:01:46;;;;;;;5.03;3.13;;;23.60;44.90;;;;;;20697;6847;117612;-86
2022/10/10 12:04:12;;;;;;;10.40;3.33;;;23.50;45.30;;;;;;20504;6847;283813;-86
2022/10/10 12:06:37;;;;;;;6.65;3.08;;;23.70;44.70;;;;;;20483;6847;313258;-86
2022/10/10 12:09:13;;;;;;;8.00;3.05;;;23.90;44.30;;;;;;20707;6847;118775;-86
2022/10/10 12:11:39;;;;;;;6.53;2.90;;;23.90;44.30;;;;;;20486;6847;320504;-86
2022/10/10 12:14:05;;;;;;;8.10;2.80;;;24.00;43.90;;;;;;20677;6847;117467;-85
2022/10/10 12:16:34;;;;;;;5.57;2.77;;;24.00;43.90;;;;;;20690;6847;118091;-86
2022/10/10 12:19:01;;;;;;;8.63;2.90;;;23.80;44.40;;;;;;20714;6847;118474;-85
2022/10/10 12:21:26;;;;;;;3.57;2.57;;;23.70;44.40;;;;;;20717;6847;116428;-85
2022/10/10 12:24:08;;;;;;;10.10;3.10;;;23.50;44.40;;;;;;20729;6847;117992;-85
2022/10/10 12:26:51;;;;;;;8.47;3.20;;;23.40;44.70;;;;;;20514;6847;307513;-85
2022/10/10 12:29:16;;;;;;;6.30;3.35;;;23.60;42.30;;;;;;19793;6846;337050;-86
2022/10/10 12:31:42;;;;;;;7.85;3.30;;;24.00;42.90;;;;;;20506;6846;308354;-87
2022/10/10 12:34:14;;;;;;;6.87;3.40;;;24.20;42.30;;;;;;20595;6847;309693;-87
2022/10/10 12:36:42;;;;;;;8.10;3.43;;;24.40;41.70;;;;;;20677;6846;120624;-86
2022/10/10 12:39:09;;;;;;;6.40;3.27;;;24.30;42.10;;;;;;20729;6847;66961;-86
2022/10/10 12:41:34;;;;;;;7.93;3.67;;;24.00;42.50;;;;;;20529;6847;311019;-86